sensor_id;sensor_type;location;lat;lon;timestamp;P1;durP1;ratioP1;P2;durP2;ratioP2
13366;SDS011;6752;52.612;13.630;2023-08-24T00:03:24;4.03;;;3.37;;
13366;SDS011;6752;52.612;13.630;2023-08-24T00:08:27;3.10;;;2.80;;
13366;SDS011;6752;52.612;13.630;2023-08-24T00:13:29;3.27;;;2.83;;
13366;SDS011;6752;52.612;13.630;2023-08-24T00:18:31;5.27;;;3.30;;
13366;SDS011;6752;52.612;13.630;2023-08-24T00:23:34;2.97;;;2.77;;
13366;SDS011;6752;52.612;13.630;2023-08-24T00:28:36;3.63;;;3.33;;
13366;SDS011;6752;52.612;13.630;2023-08-24T00:33:38;3.23;;;2.93;;
13366;SDS011;6752;52.612;13.630;2023-08-24T00:38:41;3.23;;;2.70;;
13366;SDS011;6752;52.612;13.630;2023-08-24T00:43:43;2.70;;;2.43;;
13366;SDS011;6752;52.612;13.630;2023-08-24T00:48:45;2.90;;;2.50;;
13366;SDS011;6752;52.612;13.630;2023-08-24T00:53:48;2.80;;;2.50;;
13366;SDS011;6752;52.612;13.630;2023-08-24T00:58:51;3.80;;;2.80;;
13366;SDS011;6752;52.612;13.630;2023-08-24T01:03:52;3.60;;;2.40;;
13366;SDS011;6752;52.612;13.630;2023-08-24T01:08:55;4.07;;;2.90;;
13366;SDS011;6752;52.612;13.630;2023-08-24T01:19:27;3.47;;;3.13;;
13366;SDS011;6752;52.612;13.630;2023-08-24T01:24:30;3.00;;;2.67;;
13366;SDS011;6752;52.612;13.630;2023-08-24T01:29:37;3.00;;;2.80;;
13366;SDS011;6752;52.612;13.630;2023-08-24T01:34:39;2.70;;;2.50;;
13366;SDS011;6752;52.612;13.630;2023-08-24T01:39:51;2.97;;;2.67;;
13366;SDS011;6752;52.612;13.630;2023-08-24T01:44:55;3.27;;;2.97;;
13366;SDS011;6752;52.612;13.630;2023-08-24T01:49:55;2.77;;;2.53;;
13366;SDS011;6752;52.612;13.630;2023-08-24T01:54:57;4.40;;;3.17;;
13366;SDS011;6752;52.612;13.630;2023-08-24T02:00:00;4.13;;;3.00;;
13366;SDS011;6752;52.612;13.630;2023-08-24T02:05:02;6.00;;;4.63;;
13366;SDS011;6752;52.612;13.630;2023-08-24T02:10:04;4.67;;;4.17;;
13366;SDS011;6752;52.612;13.630;2023-08-24T02:15:07;4.30;;;3.80;;
13366;SDS011;6752;52.612;13.630;2023-08-24T02:20:09;4.20;;;3.70;;
13366;SDS011;6752;52.612;13.630;2023-08-24T02:25:12;5.20;;;3.73;;
13366;SDS011;6752;52.612;13.630;2023-08-24T02:30:14;4.40;;;4.00;;
13366;SDS011;6752;52.612;13.630;2023-08-24T02:35:16;4.60;;;4.00;;
13366;SDS011;6752;52.612;13.630;2023-08-24T02:40:19;5.70;;;4.27;;
13366;SDS011;6752;52.612;13.630;2023-08-24T02:45:21;4.50;;;4.10;;
13366;SDS011;6752;52.612;13.630;2023-08-24T02:50:23;5.13;;;4.63;;
13366;SDS011;6752;52.612;13.630;2023-08-24T02:55:26;7.30;;;6.70;;
13366;SDS011;6752;52.612;13.630;2023-08-24T03:00:28;6.23;;;5.43;;
13366;SDS011;6752;52.612;13.630;2023-08-24T03:05:31;5.53;;;5.03;;
13366;SDS011;6752;52.612;13.630;2023-08-24T03:10:35;5.77;;;5.20;;
13366;SDS011;6752;52.612;13.630;2023-08-24T03:15:38;5.87;;;5.37;;
13366;SDS011;6752;52.612;13.630;2023-08-24T03:20:40;7.23;;;6.57;;
13366;SDS011;6752;52.612;13.630;2023-08-24T03:25:43;7.13;;;6.13;;
13366;SDS011;6752;52.612;13.630;2023-08-24T03:30:47;7.00;;;5.60;;
13366;SDS011;6752;52.612;13.630;2023-08-24T03:35:48;6.23;;;5.63;;
13366;SDS011;6752;52.612;13.630;2023-08-24T03:40:51;6.10;;;5.50;;
13366;SDS011;6752;52.612;13.630;2023-08-24T03:45:53;6.23;;;5.63;;
13366;SDS011;6752;52.612;13.630;2023-08-24T03:50:56;5.77;;;5.27;;
13366;SDS011;6752;52.612;13.630;2023-08-24T03:55:58;6.70;;;6.07;;
13366;SDS011;6752;52.612;13.630;2023-08-24T04:01:01;6.70;;;6.10;;
13366;SDS011;6752;52.612;13.630;2023-08-24T04:06:03;7.00;;;6.30;;
13366;SDS011;6752;52.612;13.630;2023-08-24T04:11:06;7.30;;;6.60;;
13366;SDS011;6752;52.612;13.630;2023-08-24T04:16:08;6.47;;;5.77;;
13366;SDS011;6752;52.612;13.630;2023-08-24T04:21:10;6.57;;;5.97;;
13366;SDS011;6752;52.612;13.630;2023-08-24T04:26:13;7.67;;;6.53;;
13366;SDS011;6752;52.612;13.630;2023-08-24T04:31:15;6.93;;;6.23;;
13366;SDS011;6752;52.612;13.630;2023-08-24T04:36:17;6.70;;;6.10;;
13366;SDS011;6752;52.612;13.630;2023-08-24T04:41:20;8.17;;;6.80;;
13366;SDS011;6752;52.612;13.630;2023-08-24T04:46:22;9.10;;;6.60;;
13366;SDS011;6752;52.612;13.630;2023-08-24T04:51:25;7.93;;;6.80;;
13366;SDS011;6752;52.612;13.630;2023-08-24T04:56:27;7.30;;;6.60;;
13366;SDS011;6752;52.612;13.630;2023-08-24T05:01:29;7.20;;;6.50;;
13366;SDS011;6752;52.612;13.630;2023-08-24T05:06:34;6.60;;;5.90;;
13366;SDS011;6752;52.612;13.630;2023-08-24T05:11:37;6.53;;;5.93;;
13366;SDS011;6752;52.612;13.630;2023-08-24T05:16:39;7.20;;;6.50;;
13366;SDS011;6752;52.612;13.630;2023-08-24T05:21:41;7.97;;;6.20;;
13366;SDS011;6752;52.612;13.630;2023-08-24T05:26:44;6.62;;;5.90;;
13366;SDS011;6752;52.612;13.630;2023-08-24T05:31:46;7.27;;;5.90;;
13366;SDS011;6752;52.612;13.630;2023-08-24T05:36:48;8.33;;;6.07;;
13366;SDS011;6752;52.612;13.630;2023-08-24T05:41:51;9.47;;;5.73;;
13366;SDS011;6752;52.612;13.630;2023-08-24T05:46:53;11.33;;;5.67;;
13366;SDS011;6752;52.612;13.630;2023-08-24T05:51:56;6.23;;;5.37;;
13366;SDS011;6752;52.612;13.630;2023-08-24T05:56:58;5.87;;;5.17;;
13366;SDS011;6752;52.612;13.630;2023-08-24T06:02:00;5.60;;;5.00;;
13366;SDS011;6752;52.612;13.630;2023-08-24T06:07:03;6.15;;;5.30;;
13366;SDS011;6752;52.612;13.630;2023-08-24T06:12:05;8.07;;;4.67;;
13366;SDS011;6752;52.612;13.630;2023-08-24T06:17:08;5.27;;;4.70;;
13366;SDS011;6752;52.612;13.630;2023-08-24T06:22:10;4.27;;;3.53;;
13366;SDS011;6752;52.612;13.630;2023-08-24T06:27:12;6.77;;;4.00;;
13366;SDS011;6752;52.612;13.630;2023-08-24T06:32:15;4.63;;;3.87;;
13366;SDS011;6752;52.612;13.630;2023-08-24T06:37:17;5.50;;;3.53;;
13366;SDS011;6752;52.612;13.630;2023-08-24T06:42:19;5.00;;;4.10;;
13366;SDS011;6752;52.612;13.630;2023-08-24T06:47:22;5.10;;;3.70;;
13366;SDS011;6752;52.612;13.630;2023-08-24T06:52:24;4.43;;;3.50;;
13366;SDS011;6752;52.612;13.630;2023-08-24T06:57:27;5.23;;;3.17;;
13366;SDS011;6752;52.612;13.630;2023-08-24T07:02:29;4.53;;;2.63;;
13366;SDS011;6752;52.612;13.630;2023-08-24T07:07:31;6.03;;;3.10;;
13366;SDS011;6752;52.612;13.630;2023-08-24T07:12:34;4.33;;;3.20;;
13366;SDS011;6752;52.612;13.630;2023-08-24T07:17:36;5.27;;;3.13;;
13366;SDS011;6752;52.612;13.630;2023-08-24T07:22:38;4.10;;;2.90;;
13366;SDS011;6752;52.612;13.630;2023-08-24T07:27:41;4.30;;;3.00;;
13366;SDS011;6752;52.612;13.630;2023-08-24T07:32:43;4.97;;;2.90;;
13366;SDS011;6752;52.612;13.630;2023-08-24T07:37:46;3.70;;;2.80;;
13366;SDS011;6752;52.612;13.630;2023-08-24T07:42:49;3.57;;;2.80;;
13366;SDS011;6752;52.612;13.630;2023-08-24T07:47:50;3.40;;;2.47;;
13366;SDS011;6752;52.612;13.630;2023-08-24T07:52:53;4.37;;;3.00;;
13366;SDS011;6752;52.612;13.630;2023-08-24T07:57:55;2.90;;;2.60;;
13366;SDS011;6752;52.612;13.630;2023-08-24T08:02:57;4.13;;;2.60;;
13366;SDS011;6752;52.612;13.630;2023-08-24T08:08:00;3.40;;;2.63;;
13366;SDS011;6752;52.612;13.630;2023-08-24T08:13:02;4.67;;;2.70;;
13366;SDS011;6752;52.612;13.630;2023-08-24T08:18:05;4.18;;;2.70;;
13366;SDS011;6752;52.612;13.630;2023-08-24T08:23:07;2.93;;;2.43;;
13366;SDS011;6752;52.612;13.630;2023-08-24T08:28:09;2.90;;;2.60;;
13366;SDS011;6752;52.612;13.630;2023-08-24T08:33:11;4.33;;;2.80;;
13366;SDS011;6752;52.612;13.630;2023-08-24T08:38:14;3.63;;;2.30;;
13366;SDS011;6752;52.612;13.630;2023-08-24T08:43:16;3.87;;;2.57;;
13366;SDS011;6752;52.612;13.630;2023-08-24T08:48:19;2.50;;;2.30;;
13366;SDS011;6752;52.612;13.630;2023-08-24T08:53:21;3.73;;;2.77;;
13366;SDS011;6752;52.612;13.630;2023-08-24T08:58:23;2.93;;;2.20;;
13366;SDS011;6752;52.612;13.630;2023-08-24T09:03:26;4.20;;;2.77;;
13366;SDS011;6752;52.612;13.630;2023-08-24T09:08:28;3.87;;;2.53;;
13366;SDS011;6752;52.612;13.630;2023-08-24T09:13:30;7.27;;;2.50;;
13366;SDS011;6752;52.612;13.630;2023-08-24T09:18:36;5.90;;;3.00;;
13366;SDS011;6752;52.612;13.630;2023-08-24T09:23:38;3.33;;;2.47;;
13366;SDS011;6752;52.612;13.630;2023-08-24T09:28:43;4.33;;;2.77;;
13366;SDS011;6752;52.612;13.630;2023-08-24T09:33:46;3.30;;;2.60;;
13366;SDS011;6752;52.612;13.630;2023-08-24T09:38:47;2.67;;;2.30;;
13366;SDS011;6752;52.612;13.630;2023-08-24T09:43:53;5.67;;;3.10;;
13366;SDS011;6752;52.612;13.630;2023-08-24T09:48:55;2.80;;;2.53;;
13366;SDS011;6752;52.612;13.630;2023-08-24T09:53:57;3.17;;;2.50;;
13366;SDS011;6752;52.612;13.630;2023-08-24T09:59:05;3.57;;;2.90;;
13366;SDS011;6752;52.612;13.630;2023-08-24T10:04:23;4.05;;;2.53;;
13366;SDS011;6752;52.612;13.630;2023-08-24T10:09:26;8.03;;;2.67;;
13366;SDS011;6752;52.612;13.630;2023-08-24T10:14:28;4.90;;;3.43;;
13366;SDS011;6752;52.612;13.630;2023-08-24T10:19:42;4.13;;;3.00;;
13366;SDS011;6752;52.612;13.630;2023-08-24T10:24:44;3.47;;;2.27;;
13366;SDS011;6752;52.612;13.630;2023-08-24T10:29:46;3.53;;;2.50;;
13366;SDS011;6752;52.612;13.630;2023-08-24T10:34:49;4.30;;;2.77;;
13366;SDS011;6752;52.612;13.630;2023-08-24T10:39:51;3.80;;;2.20;;
13366;SDS011;6752;52.612;13.630;2023-08-24T10:44:53;2.53;;;1.97;;
13366;SDS011;6752;52.612;13.630;2023-08-24T10:55:00;3.17;;;2.50;;
13366;SDS011;6752;52.612;13.630;2023-08-24T11:00:04;2.40;;;2.20;;
13366;SDS011;6752;52.612;13.630;2023-08-24T11:05:06;3.13;;;2.40;;
13366;SDS011;6752;52.612;13.630;2023-08-24T11:10:11;2.43;;;1.97;;
13366;SDS011;6752;52.612;13.630;2023-08-24T11:15:13;4.15;;;2.25;;
13366;SDS011;6752;52.612;13.630;2023-08-24T11:20:15;4.37;;;2.30;;
13366;SDS011;6752;52.612;13.630;2023-08-24T11:25:18;4.93;;;2.50;;
13366;SDS011;6752;52.612;13.630;2023-08-24T11:30:20;2.85;;;2.12;;
13366;SDS011;6752;52.612;13.630;2023-08-24T11:35:22;4.25;;;2.30;;
13366;SDS011;6752;52.612;13.630;2023-08-24T11:40:25;3.05;;;2.17;;
13366;SDS011;6752;52.612;13.630;2023-08-24T11:45:30;3.60;;;2.20;;
13366;SDS011;6752;52.612;13.630;2023-08-24T11:50:32;2.83;;;2.20;;
13366;SDS011;6752;52.612;13.630;2023-08-24T11:55:38;4.90;;;2.67;;
13366;SDS011;6752;52.612;13.630;2023-08-24T12:00:37;2.97;;;2.30;;
13366;SDS011;6752;52.612;13.630;2023-08-24T12:05:39;2.70;;;2.35;;
13366;SDS011;6752;52.612;13.630;2023-08-24T12:10:44;3.53;;;2.50;;
13366;SDS011;6752;52.612;13.630;2023-08-24T12:15:47;3.33;;;2.65;;
13366;SDS011;6752;52.612;13.630;2023-08-24T12:20:49;3.10;;;2.50;;
13366;SDS011;6752;52.612;13.630;2023-08-24T12:25:53;3.75;;;2.53;;
13366;SDS011;6752;52.612;13.630;2023-08-24T12:30:54;3.08;;;2.70;;
13366;SDS011;6752;52.612;13.630;2023-08-24T12:35:56;4.93;;;2.90;;
13366;SDS011;6752;52.612;13.630;2023-08-24T12:40:58;3.45;;;2.90;;
13366;SDS011;6752;52.612;13.630;2023-08-24T12:46:01;2.90;;;2.60;;
13366;SDS011;6752;52.612;13.630;2023-08-24T12:51:03;3.20;;;2.90;;
13366;SDS011;6752;52.612;13.630;2023-08-24T12:56:06;3.83;;;3.17;;
13366;SDS011;6752;52.612;13.630;2023-08-24T13:01:08;3.45;;;2.65;;
13366;SDS011;6752;52.612;13.630;2023-08-24T13:06:10;4.53;;;2.87;;
13366;SDS011;6752;52.612;13.630;2023-08-24T13:11:13;4.03;;;3.10;;
13366;SDS011;6752;52.612;13.630;2023-08-24T13:16:15;3.33;;;2.83;;
13366;SDS011;6752;52.612;13.630;2023-08-24T13:21:17;3.97;;;3.43;;
13366;SDS011;6752;52.612;13.630;2023-08-24T13:26:20;4.90;;;3.10;;
13366;SDS011;6752;52.612;13.630;2023-08-24T13:31:22;5.93;;;2.83;;
13366;SDS011;6752;52.612;13.630;2023-08-24T13:36:24;3.85;;;3.05;;
13366;SDS011;6752;52.612;13.630;2023-08-24T13:42:51;3.73;;;3.37;;
13366;SDS011;6752;52.612;13.630;2023-08-24T13:47:53;3.83;;;3.00;;
13366;SDS011;6752;52.612;13.630;2023-08-24T13:52:55;4.37;;;2.93;;
13366;SDS011;6752;52.612;13.630;2023-08-24T13:57:58;4.47;;;3.00;;
13366;SDS011;6752;52.612;13.630;2023-08-24T14:03:00;3.57;;;2.97;;
13366;SDS011;6752;52.612;13.630;2023-08-24T14:08:02;3.67;;;3.00;;
13366;SDS011;6752;52.612;13.630;2023-08-24T14:13:05;5.83;;;3.33;;
13366;SDS011;6752;52.612;13.630;2023-08-24T14:18:07;3.60;;;3.00;;
13366;SDS011;6752;52.612;13.630;2023-08-24T14:23:09;3.83;;;2.83;;
13366;SDS011;6752;52.612;13.630;2023-08-24T14:28:12;3.70;;;2.90;;
13366;SDS011;6752;52.612;13.630;2023-08-24T14:33:14;3.47;;;2.90;;
13366;SDS011;6752;52.612;13.630;2023-08-24T14:38:17;3.33;;;2.80;;
13366;SDS011;6752;52.612;13.630;2023-08-24T14:43:19;4.20;;;3.17;;
13366;SDS011;6752;52.612;13.630;2023-08-24T14:48:21;3.00;;;2.70;;
13366;SDS011;6752;52.612;13.630;2023-08-24T14:53:24;3.47;;;2.87;;
13366;SDS011;6752;52.612;13.630;2023-08-24T14:58:26;4.47;;;2.80;;
13366;SDS011;6752;52.612;13.630;2023-08-24T15:03:28;4.17;;;2.87;;
13366;SDS011;6752;52.612;13.630;2023-08-24T15:08:31;3.30;;;2.87;;
13366;SDS011;6752;52.612;13.630;2023-08-24T15:13:33;3.90;;;2.90;;
13366;SDS011;6752;52.612;13.630;2023-08-24T15:18:35;5.87;;;3.30;;
13366;SDS011;6752;52.612;13.630;2023-08-24T15:23:38;4.40;;;2.80;;
13366;SDS011;6752;52.612;13.630;2023-08-24T15:34:10;4.20;;;2.90;;
13366;SDS011;6752;52.612;13.630;2023-08-24T15:39:12;4.50;;;2.90;;
13366;SDS011;6752;52.612;13.630;2023-08-24T15:44:14;3.23;;;2.87;;
13366;SDS011;6752;52.612;13.630;2023-08-24T15:49:17;3.37;;;3.07;;
13366;SDS011;6752;52.612;13.630;2023-08-24T15:54:19;3.63;;;2.80;;
13366;SDS011;6752;52.612;13.630;2023-08-24T15:59:21;4.43;;;2.60;;
13366;SDS011;6752;52.612;13.630;2023-08-24T16:04:24;3.00;;;2.70;;
13366;SDS011;6752;52.612;13.630;2023-08-24T16:09:26;2.93;;;2.63;;
13366;SDS011;6752;52.612;13.630;2023-08-24T16:14:28;2.57;;;2.37;;
13366;SDS011;6752;52.612;13.630;2023-08-24T16:19:31;3.83;;;2.90;;
13366;SDS011;6752;52.612;13.630;2023-08-24T16:24:33;6.00;;;2.67;;
13366;SDS011;6752;52.612;13.630;2023-08-24T16:29:36;4.67;;;3.53;;
13366;SDS011;6752;52.612;13.630;2023-08-24T16:34:38;4.07;;;2.80;;
13366;SDS011;6752;52.612;13.630;2023-08-24T16:39:40;4.17;;;3.67;;
13366;SDS011;6752;52.612;13.630;2023-08-24T16:44:43;4.43;;;3.13;;
13366;SDS011;6752;52.612;13.630;2023-08-24T16:49:45;4.83;;;4.43;;
13366;SDS011;6752;52.612;13.630;2023-08-24T16:54:47;5.70;;;4.83;;
13366;SDS011;6752;52.612;13.630;2023-08-24T16:59:50;4.30;;;3.90;;
13366;SDS011;6752;52.612;13.630;2023-08-24T17:04:52;3.70;;;3.03;;
13366;SDS011;6752;52.612;13.630;2023-08-24T17:09:54;3.47;;;2.70;;
13366;SDS011;6752;52.612;13.630;2023-08-24T17:14:57;3.20;;;2.73;;
13366;SDS011;6752;52.612;13.630;2023-08-24T17:19:59;2.80;;;2.60;;
13366;SDS011;6752;52.612;13.630;2023-08-24T17:25:01;3.57;;;2.70;;
13366;SDS011;6752;52.612;13.630;2023-08-24T17:30:04;3.10;;;2.80;;
13366;SDS011;6752;52.612;13.630;2023-08-24T17:35:06;4.53;;;2.65;;
13366;SDS011;6752;52.612;13.630;2023-08-24T17:40:09;4.33;;;2.63;;
13366;SDS011;6752;52.612;13.630;2023-08-24T17:45:14;3.17;;;2.50;;
13366;SDS011;6752;52.612;13.630;2023-08-24T17:50:16;3.70;;;2.80;;
13366;SDS011;6752;52.612;13.630;2023-08-24T17:55:19;2.90;;;2.60;;
13366;SDS011;6752;52.612;13.630;2023-08-24T18:00:21;3.67;;;2.83;;
13366;SDS011;6752;52.612;13.630;2023-08-24T18:05:23;3.93;;;2.70;;
13366;SDS011;6752;52.612;13.630;2023-08-24T18:10:26;3.90;;;2.70;;
13366;SDS011;6752;52.612;13.630;2023-08-24T18:15:32;3.20;;;2.90;;
13366;SDS011;6752;52.612;13.630;2023-08-24T18:20:30;4.93;;;2.93;;
13366;SDS011;6752;52.612;13.630;2023-08-24T18:25:33;3.80;;;3.10;;
13366;SDS011;6752;52.612;13.630;2023-08-24T18:30:35;4.97;;;3.70;;
13366;SDS011;6752;52.612;13.630;2023-08-24T18:35:37;4.50;;;3.27;;
13366;SDS011;6752;52.612;13.630;2023-08-24T18:40:40;4.50;;;3.47;;
13366;SDS011;6752;52.612;13.630;2023-08-24T18:45:42;5.93;;;3.63;;
13366;SDS011;6752;52.612;13.630;2023-08-24T18:50:44;3.90;;;3.43;;
13366;SDS011;6752;52.612;13.630;2023-08-24T18:55:51;7.10;;;3.80;;
13366;SDS011;6752;52.612;13.630;2023-08-24T19:00:50;5.80;;;3.70;;
13366;SDS011;6752;52.612;13.630;2023-08-24T19:05:52;4.77;;;3.53;;
13366;SDS011;6752;52.612;13.630;2023-08-24T19:10:54;4.87;;;3.13;;
13366;SDS011;6752;52.612;13.630;2023-08-24T19:16:00;4.80;;;3.70;;
13366;SDS011;6752;52.612;13.630;2023-08-24T19:21:01;5.87;;;3.33;;
13366;SDS011;6752;52.612;13.630;2023-08-24T19:26:04;3.70;;;3.27;;
13366;SDS011;6752;52.612;13.630;2023-08-24T19:31:06;5.57;;;4.20;;
13366;SDS011;6752;52.612;13.630;2023-08-24T19:36:09;4.27;;;3.87;;
13366;SDS011;6752;52.612;13.630;2023-08-24T19:41:11;5.03;;;4.17;;
13366;SDS011;6752;52.612;13.630;2023-08-24T19:46:13;4.37;;;3.77;;
13366;SDS011;6752;52.612;13.630;2023-08-24T19:51:16;4.20;;;3.90;;
13366;SDS011;6752;52.612;13.630;2023-08-24T19:56:18;4.77;;;4.10;;
13366;SDS011;6752;52.612;13.630;2023-08-24T20:01:21;5.05;;;4.37;;
13366;SDS011;6752;52.612;13.630;2023-08-24T20:06:26;4.97;;;4.47;;
13366;SDS011;6752;52.612;13.630;2023-08-24T20:11:28;6.57;;;4.73;;
13366;SDS011;6752;52.612;13.630;2023-08-24T20:16:33;5.97;;;4.27;;
13366;SDS011;6752;52.612;13.630;2023-08-24T20:21:35;4.93;;;4.43;;
13366;SDS011;6752;52.612;13.630;2023-08-24T20:26:38;5.30;;;4.90;;
13366;SDS011;6752;52.612;13.630;2023-08-24T20:31:40;5.20;;;4.70;;
13366;SDS011;6752;52.612;13.630;2023-08-24T20:36:43;4.90;;;4.50;;
13366;SDS011;6752;52.612;13.630;2023-08-24T20:41:45;5.07;;;4.57;;
13366;SDS011;6752;52.612;13.630;2023-08-24T20:46:47;6.10;;;4.50;;
13366;SDS011;6752;52.612;13.630;2023-08-24T20:51:50;4.83;;;4.40;;
13366;SDS011;6752;52.612;13.630;2023-08-24T20:56:53;5.60;;;5.10;;
13366;SDS011;6752;52.612;13.630;2023-08-24T21:01:55;11.20;;;6.23;;
13366;SDS011;6752;52.612;13.630;2023-08-24T21:06:58;5.35;;;4.87;;
13366;SDS011;6752;52.612;13.630;2023-08-24T21:12:00;5.77;;;5.27;;
13366;SDS011;6752;52.612;13.630;2023-08-24T21:17:02;5.37;;;4.87;;
13366;SDS011;6752;52.612;13.630;2023-08-24T21:22:05;5.55;;;4.82;;
13366;SDS011;6752;52.612;13.630;2023-08-24T21:27:07;6.67;;;4.83;;
13366;SDS011;6752;52.612;13.630;2023-08-24T21:32:09;5.33;;;4.83;;
13366;SDS011;6752;52.612;13.630;2023-08-24T21:37:12;5.80;;;5.30;;
13366;SDS011;6752;52.612;13.630;2023-08-24T21:42:14;5.47;;;4.97;;
13366;SDS011;6752;52.612;13.630;2023-08-24T21:47:16;5.90;;;5.40;;
13366;SDS011;6752;52.612;13.630;2023-08-24T21:52:19;7.17;;;5.33;;
13366;SDS011;6752;52.612;13.630;2023-08-24T21:57:21;5.03;;;4.62;;
13366;SDS011;6752;52.612;13.630;2023-08-24T22:02:23;5.30;;;4.80;;
13366;SDS011;6752;52.612;13.630;2023-08-24T22:07:26;6.27;;;4.90;;
13366;SDS011;6752;52.612;13.630;2023-08-24T22:12:28;4.73;;;4.30;;
13366;SDS011;6752;52.612;13.630;2023-08-24T22:17:31;4.90;;;4.50;;
13366;SDS011;6752;52.612;13.630;2023-08-24T22:22:33;4.80;;;4.33;;
13366;SDS011;6752;52.612;13.630;2023-08-24T22:27:35;4.75;;;4.25;;
13366;SDS011;6752;52.612;13.630;2023-08-24T22:32:38;4.80;;;3.93;;
13366;SDS011;6752;52.612;13.630;2023-08-24T22:37:40;4.30;;;3.60;;
13366;SDS011;6752;52.612;13.630;2023-08-24T22:42:42;4.30;;;3.80;;
13366;SDS011;6752;52.612;13.630;2023-08-24T22:47:45;4.40;;;3.97;;
13366;SDS011;6752;52.612;13.630;2023-08-24T22:52:47;5.13;;;4.30;;
13366;SDS011;6752;52.612;13.630;2023-08-24T22:57:49;3.80;;;3.50;;
13366;SDS011;6752;52.612;13.630;2023-08-24T23:02:52;4.57;;;3.77;;
13366;SDS011;6752;52.612;13.630;2023-08-24T23:07:54;4.43;;;3.33;;
13366;SDS011;6752;52.612;13.630;2023-08-24T23:12:56;3.80;;;3.43;;
13366;SDS011;6752;52.612;13.630;2023-08-24T23:17:59;4.80;;;3.90;;
13366;SDS011;6752;52.612;13.630;2023-08-24T23:23:01;4.20;;;3.60;;
13366;SDS011;6752;52.612;13.630;2023-08-24T23:28:04;4.20;;;3.57;;
13366;SDS011;6752;52.612;13.630;2023-08-24T23:33:06;5.00;;;3.93;;
13366;SDS011;6752;52.612;13.630;2023-08-24T23:38:08;4.23;;;3.83;;
13366;SDS011;6752;52.612;13.630;2023-08-24T23:43:11;6.20;;;4.20;;
13366;SDS011;6752;52.612;13.630;2023-08-24T23:48:13;4.10;;;3.70;;
13366;SDS011;6752;52.612;13.630;2023-08-24T23:53:16;4.10;;;3.70;;
13366;SDS011;6752;52.612;13.630;2023-08-24T23:58:18;4.97;;;3.90;;
